createdAt,value
2023-08-29T00:01:33.087Z,96093.81
2023-08-29T00:03:59.759Z,96103.03
2023-08-29T00:06:26.817Z,96102.19
2023-08-29T00:08:53.334Z,96090.63
2023-08-29T00:11:19.855Z,96086.31
2023-08-29T00:13:46.337Z,96080.91
2023-08-29T00:16:17.376Z,96080.75
2023-08-29T00:18:45.706Z,96072.97
2023-08-29T00:21:12.800Z,96071.31
2023-08-29T00:23:39.330Z,96071.31
2023-08-29T00:26:05.998Z,96080.22
2023-08-29T00:28:32.555Z,96075.75
2023-08-29T00:30:59.094Z,96074.25
2023-08-29T00:33:25.610Z,96080.53
2023-08-29T00:35:52.207Z,96076.22
2023-08-29T00:38:18.821Z,96066.59
2023-08-29T00:40:45.441Z,96070.09
2023-08-29T00:43:12.072Z,96076.34
2023-08-29T00:45:38.792Z,96077.03
2023-08-29T00:48:07.903Z,96067.44
2023-08-29T00:50:36.007Z,96066.75
2023-08-29T00:53:05.603Z,96065.94
2023-08-29T00:55:34.801Z,96058.97
2023-08-29T00:58:03.627Z,96058.13
2023-08-29T01:00:32.138Z,96051.03
2023-08-29T01:03:00.206Z,96056.63
2023-08-29T01:05:29.478Z,96050.50
2023-08-29T01:08:03.073Z,96039.94
2023-08-29T01:10:39.986Z,96044.41
2023-08-29T01:13:25.981Z,96036.63
2023-08-29T01:15:56.771Z,96033.97
2023-08-29T01:18:32.171Z,96030.31
2023-08-29T01:21:27.101Z,96035.59
2023-08-29T01:24:02.530Z,96032.16
2023-08-29T01:26:30.849Z,96046.34
2023-08-29T01:28:59.926Z,96046.50
2023-08-29T01:31:30.877Z,96044.44
2023-08-29T01:34:03.457Z,96046.25
2023-08-29T01:36:48.745Z,96062.13
2023-08-29T01:39:18.121Z,96061.44
2023-08-29T01:45:15.316Z,96063.56
2023-08-29T01:47:44.000Z,96064.38
2023-08-29T01:50:12.713Z,96069.66
2023-08-29T01:52:45.295Z,96075.50
2023-08-29T01:55:12.101Z,96073.81
2023-08-29T01:57:39.810Z,96067.72
2023-08-29T02:00:07.348Z,96079.41
2023-08-29T02:02:33.998Z,96077.59
2023-08-29T02:05:00.608Z,96075.78
2023-08-29T02:07:27.184Z,96076.63
2023-08-29T02:09:53.749Z,96067.84
2023-08-29T02:12:20.362Z,96072.31
2023-08-29T02:14:47.209Z,96072.31
2023-08-29T02:17:16.004Z,96073.97
2023-08-29T02:19:42.497Z,96074.94
2023-08-29T02:22:09.768Z,96074.94
2023-08-29T02:24:36.435Z,96083.84
2023-08-29T02:27:03.556Z,96085.69
2023-08-29T02:29:30.041Z,96080.53
2023-08-29T02:31:56.601Z,96080.81
2023-08-29T02:34:23.191Z,96082.66
2023-08-29T02:36:49.707Z,96077.34
2023-08-29T02:39:16.253Z,96068.59
2023-08-29T02:41:42.769Z,96072.06
2023-08-29T02:44:09.327Z,96068.72
2023-08-29T02:46:35.934Z,96068.72
2023-08-29T02:49:02.505Z,96067.09
2023-08-29T02:51:29.133Z,96055.66
2023-08-29T02:53:55.662Z,96060.13
2023-08-29T02:56:22.324Z,96061.09
2023-08-29T02:58:48.988Z,96064.56
2023-08-29T03:01:15.623Z,96065.41
2023-08-29T03:03:42.638Z,96066.38
2023-08-29T03:06:09.448Z,96066.38
2023-08-29T03:08:36.131Z,96074.47
2023-08-29T03:11:05.210Z,96070.16
2023-08-29T03:17:09.724Z,96060.84
2023-08-29T03:19:38.653Z,96068.63
2023-08-29T03:24:51.214Z,96056.25
2023-08-29T03:27:17.818Z,96058.06
2023-08-29T03:29:44.401Z,96060.72
2023-08-29T03:32:10.985Z,96058.22
2023-08-29T03:34:38.602Z,96052.94
2023-08-29T03:37:08.503Z,96055.56
2023-08-29T03:39:37.588Z,96051.97
2023-08-29T03:42:04.439Z,96052.94
2023-08-29T03:44:30.995Z,96049.59
2023-08-29T03:46:57.556Z,96046.13
2023-08-29T03:49:24.069Z,96048.91
2023-08-29T03:51:50.617Z,96052.69
2023-08-29T03:54:17.155Z,96058.94
2023-08-29T03:56:44.703Z,96057.28
2023-08-29T03:59:11.235Z,96065.19
2023-08-29T04:01:37.797Z,96065.06
2023-08-29T04:04:07.844Z,96051.72
2023-08-29T04:06:36.978Z,96053.50
2023-08-29T04:09:09.421Z,96056.31
2023-08-29T04:11:36.048Z,96065.06
2023-08-29T04:14:02.952Z,96058.94
2023-08-29T04:16:32.209Z,96066.88
2023-08-29T04:19:01.404Z,96062.56
2023-08-29T04:21:28.021Z,96063.00
2023-08-29T04:23:54.526Z,96070.94
2023-08-29T04:26:22.592Z,96060.78
2023-08-29T04:28:49.999Z,96063.59
2023-08-29T04:31:18.608Z,96060.94
2023-08-29T04:33:45.400Z,96056.94
2023-08-29T04:36:15.219Z,96058.75
2023-08-29T04:38:52.266Z,96058.06
2023-08-29T04:41:33.498Z,96063.91
2023-08-29T04:44:00.468Z,96067.78
2023-08-29T04:46:29.400Z,96080.16
2023-08-29T04:48:55.906Z,96085.88
2023-08-29T04:51:39.937Z,96093.94
2023-08-29T04:54:06.868Z,96093.28
2023-08-29T04:56:33.545Z,96104.66
2023-08-29T04:59:00.101Z,96105.06
2023-08-29T05:01:26.928Z,96106.19
2023-08-29T05:03:53.773Z,96104.53
2023-08-29T05:06:30.771Z,96112.63
2023-08-29T05:08:57.389Z,96108.31
2023-08-29T05:11:23.917Z,96109.41
2023-08-29T05:13:50.493Z,96115.66
2023-08-29T05:16:17.049Z,96120.13
2023-08-29T05:18:43.621Z,96114.28
2023-08-29T05:21:10.154Z,96121.50
2023-08-29T05:23:36.722Z,96136.38
2023-08-29T05:26:03.259Z,96140.13
2023-08-29T05:28:30.046Z,96136.81
2023-08-29T05:30:56.675Z,96138.75
2023-08-29T05:33:23.233Z,96142.22
2023-08-29T05:35:49.782Z,96145.97
2023-08-29T05:38:16.315Z,96137.78
2023-08-29T05:40:42.863Z,96128.88
2023-08-29T05:43:11.871Z,96124.28
2023-08-29T05:45:41.778Z,96129.56
2023-08-29T05:48:08.762Z,96125.00
2023-08-29T05:50:40.364Z,96132.22
2023-08-29T05:54:00.189Z,96139.00
2023-08-29T05:56:26.820Z,96140.13
2023-08-29T05:59:18.005Z,96143.31
2023-08-29T06:01:44.785Z,96156.66
2023-08-29T06:04:11.420Z,96165.28
2023-08-29T06:06:47.009Z,96176.38
2023-08-29T06:09:13.949Z,96180.69
2023-08-29T06:11:43.476Z,96175.84
2023-08-29T06:17:59.419Z,96176.50
2023-08-29T06:20:29.112Z,96179.88
2023-08-29T06:22:58.019Z,96180.53
2023-08-29T06:26:28.302Z,96183.31
2023-08-29T06:28:54.906Z,96175.00
2023-08-29T06:31:27.171Z,96184.97
2023-08-29T06:33:59.522Z,96180.44
2023-08-29T06:36:27.228Z,96179.00
2023-08-29T06:38:54.717Z,96184.16
2023-08-29T06:41:35.904Z,96187.09
2023-08-29T06:44:15.960Z,96187.19
2023-08-29T06:47:03.802Z,96195.25
2023-08-29T06:49:51.453Z,96198.00
2023-08-29T06:52:18.028Z,96200.22
2023-08-29T06:54:47.641Z,96201.75
2023-08-29T06:57:14.181Z,96198.50
2023-08-29T06:59:40.894Z,96203.47
2023-08-29T07:02:10.011Z,96201.81
2023-08-29T07:04:36.773Z,96209.72
2023-08-29T07:07:03.949Z,96207.63
2023-08-29T07:09:34.789Z,96208.34
2023-08-29T07:12:01.451Z,96206.09
2023-08-29T07:14:27.940Z,96204.75
2023-08-29T07:17:09.471Z,96191.13
2023-08-29T07:19:37.264Z,96194.66
2023-08-29T07:23:24.314Z,96189.84
2023-08-29T07:26:17.109Z,96194.50
2023-08-29T07:28:43.698Z,96192.91
2023-08-29T07:35:19.241Z,96213.81
2023-08-29T07:38:00.009Z,96210.19
2023-08-29T07:41:05.767Z,96213.00
2023-08-29T07:43:47.949Z,96212.84
2023-08-29T07:47:15.672Z,96216.25
2023-08-29T07:49:43.637Z,96228.44
2023-08-29T07:52:10.625Z,96226.16
2023-08-29T07:54:37.326Z,96222.38
2023-08-29T07:57:05.016Z,96220.22
2023-08-29T07:59:31.650Z,96222.91
2023-08-29T08:01:58.255Z,96230.81
2023-08-29T08:04:24.861Z,96226.97
2023-08-29T08:06:51.480Z,96242.78
2023-08-29T08:09:18.027Z,96234.88
2023-08-29T08:11:44.560Z,96241.09
2023-08-29T08:14:12.586Z,96240.88
2023-08-29T08:16:39.168Z,96236.44
2023-08-29T08:19:05.813Z,96236.31
2023-08-29T08:21:32.393Z,96237.56
2023-08-29T08:23:58.999Z,96238.84
2023-08-29T08:26:25.722Z,96248.38
2023-08-29T08:28:53.359Z,96249.56
2023-08-29T08:31:19.946Z,96251.59
2023-08-29T08:33:46.693Z,96250.94
2023-08-29T08:36:13.320Z,96261.91
2023-08-29T08:38:39.909Z,96256.91
2023-08-29T08:41:06.553Z,96264.69
2023-08-29T08:43:33.338Z,96269.44
2023-08-29T08:46:00.245Z,96275.00
2023-08-29T08:48:27.803Z,96268.25
2023-08-29T08:50:55.061Z,96270.63
2023-08-29T08:53:23.052Z,96268.78
2023-08-29T08:55:52.494Z,96271.75
2023-08-29T08:58:19.686Z,96277.00
2023-08-29T09:00:46.548Z,96274.41
2023-08-29T09:03:14.845Z,96265.53
2023-08-29T09:05:42.971Z,96263.09
2023-08-29T09:08:09.818Z,96267.66
2023-08-29T09:10:40.756Z,96255.84
2023-08-29T09:13:07.496Z,96264.84
2023-08-29T09:15:35.839Z,96269.28
2023-08-29T09:18:02.720Z,96264.38
2023-08-29T09:20:30.932Z,96267.03
2023-08-29T09:22:57.692Z,96265.75
2023-08-29T09:25:27.733Z,96267.41
2023-08-29T09:27:54.915Z,96267.59
2023-08-29T09:30:21.853Z,96266.44
2023-08-29T09:32:50.305Z,96267.94
2023-08-29T09:35:20.123Z,96264.28
2023-08-29T09:37:56.300Z,96260.09
2023-08-29T09:43:04.030Z,96254.41
2023-08-29T09:45:31.828Z,96261.16
2023-08-29T09:48:10.066Z,96248.31
2023-08-29T09:50:37.606Z,96246.09
2023-08-29T09:53:04.372Z,96256.47
2023-08-29T09:55:41.237Z,96264.28
2023-08-29T09:58:09.015Z,96268.25
2023-08-29T10:00:37.354Z,96266.81
2023-08-29T10:03:11.666Z,96277.44
2023-08-29T10:09:20.802Z,96286.56
2023-08-29T10:15:56.169Z,96277.47
2023-08-29T10:18:23.616Z,96290.16
2023-08-29T10:20:50.548Z,96295.50
2023-08-29T10:27:05.201Z,96301.44
2023-08-29T10:29:32.998Z,96292.63
2023-08-29T10:35:46.727Z,96277.63
2023-08-29T10:38:15.816Z,96287.78
2023-08-29T10:44:47.178Z,96274.69
2023-08-29T10:52:04.193Z,96277.19
2023-08-29T10:54:30.891Z,96260.25
2023-08-29T11:01:31.150Z,96258.63
2023-08-29T11:04:04.900Z,96254.06
2023-08-29T11:10:28.198Z,96256.63
2023-08-29T11:13:12.747Z,96253.44
2023-08-29T11:23:08.057Z,96262.09
2023-08-29T11:29:21.263Z,96263.28
2023-08-29T11:31:48.489Z,96270.06
2023-08-29T11:38:20.171Z,96278.75
2023-08-29T11:40:52.726Z,96273.41
2023-08-29T11:47:28.276Z,96287.75
2023-08-29T11:49:55.173Z,96282.59
2023-08-29T11:56:05.068Z,96288.31
2023-08-29T11:58:33.559Z,96297.06
2023-08-29T12:05:18.139Z,96287.88
2023-08-29T12:15:59.214Z,96289.84
2023-08-29T12:18:29.086Z,96292.44
2023-08-29T12:21:18.605Z,96285.41
2023-08-29T12:31:53.296Z,96281.66
2023-08-29T12:38:51.272Z,96273.63
2023-08-29T12:41:18.960Z,96274.50
2023-08-29T12:43:45.499Z,96289.00
2023-08-29T12:46:12.176Z,96279.13
2023-08-29T12:48:38.751Z,96281.63
2023-08-29T12:54:52.636Z,96284.53
2023-08-29T12:57:19.238Z,96277.41
2023-08-29T12:59:46.448Z,96290.00
2023-08-29T13:02:13.439Z,96284.22
2023-08-29T13:04:40.162Z,96280.91
2023-08-29T13:07:06.907Z,96284.88
2023-08-29T13:09:38.015Z,96285.22
2023-08-29T13:19:40.728Z,96280.94
2023-08-29T13:22:07.805Z,96276.19
2023-08-29T13:24:35.720Z,96276.38
2023-08-29T13:27:02.433Z,96280.44
2023-08-29T13:29:29.182Z,96276.00
2023-08-29T13:31:55.928Z,96278.50
2023-08-29T13:34:22.537Z,96281.56
2023-08-29T13:36:49.443Z,96287.56
2023-08-29T13:39:16.066Z,96280.56
2023-08-29T13:45:29.493Z,96289.28
2023-08-29T13:47:56.125Z,96292.06
2023-08-29T13:50:23.235Z,96292.22
2023-08-29T13:52:49.922Z,96284.06
2023-08-29T13:55:16.617Z,96287.56
2023-08-29T13:57:43.604Z,96283.56
2023-08-29T14:00:10.795Z,96288.53
2023-08-29T14:02:38.128Z,96292.03
2023-08-29T14:05:05.172Z,96285.78
2023-08-29T14:07:31.743Z,96291.13
2023-08-29T14:09:58.275Z,96288.34
2023-08-29T14:16:12.228Z,96289.69
2023-08-29T14:18:41.997Z,96290.31
2023-08-29T14:21:09.523Z,96292.94
2023-08-29T14:23:36.254Z,96298.09
2023-08-29T14:26:03.210Z,96295.81
2023-08-29T14:28:30.074Z,96294.78
2023-08-29T14:30:57.393Z,96289.28
2023-08-29T14:33:24.105Z,96286.78
2023-08-29T14:35:57.300Z,96292.59
2023-08-29T14:42:40.125Z,96288.94
2023-08-29T14:45:08.712Z,96284.28
2023-08-29T14:47:36.059Z,96293.72
2023-08-29T14:50:02.713Z,96293.88
2023-08-29T14:52:29.520Z,96300.66
2023-08-29T14:54:57.218Z,96300.16
2023-08-29T14:57:23.888Z,96302.81
2023-08-29T14:59:50.493Z,96292.69
2023-08-29T15:02:17.115Z,96301.00
2023-08-29T15:04:43.752Z,96297.19
2023-08-29T15:07:15.308Z,96300.19
2023-08-29T15:09:42.158Z,96303.81
2023-08-29T15:12:09.554Z,96291.50
2023-08-29T15:18:17.442Z,96304.84
2023-08-29T15:20:44.534Z,96308.59
2023-08-29T15:23:11.539Z,96310.56
2023-08-29T15:32:56.553Z,96318.34
2023-08-29T15:35:23.348Z,96322.91
2023-08-29T15:42:21.121Z,96319.94
2023-08-29T15:44:48.027Z,96323.22
2023-08-29T15:47:18.657Z,96326.16
2023-08-29T15:49:47.054Z,96325.34
2023-08-29T15:56:06.116Z,96323.78
2023-08-29T15:58:48.392Z,96333.09
2023-08-29T16:01:18.128Z,96328.97
2023-08-29T16:07:53.646Z,96339.81
2023-08-29T16:10:20.323Z,96339.38
2023-08-29T16:12:47.630Z,96351.41
2023-08-29T16:15:17.103Z,96351.03
2023-08-29T16:21:13.380Z,96347.78
2023-08-29T16:23:40.985Z,96350.72
2023-08-29T16:26:15.851Z,96345.06
2023-08-29T16:28:43.186Z,96357.44
2023-08-29T16:31:10.212Z,96359.56
2023-08-29T16:33:36.819Z,96353.75
2023-08-29T16:36:04.702Z,96363.34
2023-08-29T16:38:31.589Z,96357.38
2023-08-29T16:40:59.095Z,96358.19
2023-08-29T16:47:22.099Z,96362.50
2023-08-29T16:49:48.814Z,96359.88
2023-08-29T16:52:15.373Z,96359.72
2023-08-29T16:54:42.104Z,96356.41
2023-08-29T16:57:08.720Z,96361.69
2023-08-29T16:59:56.586Z,96366.13
2023-08-29T17:06:10.953Z,96368.72
2023-08-29T17:08:37.767Z,96370.53
2023-08-29T17:11:04.489Z,96371.66
2023-08-29T17:13:31.041Z,96375.44
2023-08-29T17:15:57.800Z,96369.28
2023-08-29T17:25:47.111Z,96375.78
2023-08-29T17:28:16.176Z,96371.91
2023-08-29T17:30:42.942Z,96375.00
2023-08-29T17:33:09.582Z,96377.09
2023-08-29T17:35:37.356Z,96380.03
2023-08-29T17:38:04.174Z,96379.47
2023-08-29T17:47:48.143Z,96382.16
2023-08-29T17:50:14.767Z,96378.81
2023-08-29T17:52:41.499Z,96377.97
2023-08-29T17:55:08.208Z,96376.47
2023-08-29T18:01:23.002Z,96381.34
2023-08-29T18:03:49.994Z,96387.63
2023-08-29T18:06:24.459Z,96372.44
2023-08-29T18:09:15.181Z,96376.19
2023-08-29T18:15:29.542Z,96372.59
2023-08-29T18:17:59.463Z,96383.47
2023-08-29T18:20:25.879Z,96378.34
2023-08-29T18:22:53.217Z,96375.00
2023-08-29T18:25:19.907Z,96382.09
2023-08-29T18:27:46.443Z,96382.09
2023-08-29T18:30:13.412Z,96389.06
2023-08-29T18:32:40.003Z,96387.53
2023-08-29T18:35:07.098Z,96380.72
2023-08-29T18:37:33.694Z,96388.81
2023-08-29T18:40:00.303Z,96401.19
2023-08-29T18:42:26.968Z,96399.66
2023-08-29T18:44:53.620Z,96404.94
2023-08-29T18:47:20.167Z,96407.75
2023-08-29T18:49:46.856Z,96408.72
2023-08-29T18:52:13.522Z,96412.31
2023-08-29T18:54:40.042Z,96412.31
2023-08-29T18:57:06.569Z,96413.19
2023-08-29T18:59:33.278Z,96422.09
2023-08-29T19:02:00.555Z,96409.16
2023-08-29T19:04:27.151Z,96411.78
2023-08-29T19:06:53.658Z,96419.72
2023-08-29T19:09:20.299Z,96414.16
2023-08-29T19:11:47.582Z,96421.13
2023-08-29T19:14:14.098Z,96427.38
2023-08-29T19:16:40.611Z,96424.06
2023-08-29T19:19:07.754Z,96422.38
2023-08-29T19:21:34.319Z,96421.69
2023-08-29T19:24:01.125Z,96421.53
2023-08-29T19:26:27.824Z,96419.88
2023-08-29T19:28:54.511Z,96422.66
2023-08-29T19:31:21.257Z,96420.84
2023-08-29T19:33:47.990Z,96415.56
2023-08-29T19:36:17.082Z,96414.72
2023-08-29T19:38:44.877Z,96412.78
2023-08-29T19:41:14.105Z,96415.41
2023-08-29T19:43:41.021Z,96410.41
2023-08-29T19:46:08.310Z,96416.69
2023-08-29T19:48:34.968Z,96414.84
2023-08-29T19:51:01.610Z,96413.19
2023-08-29T19:53:28.281Z,96413.19
2023-08-29T19:55:54.867Z,96405.25
2023-08-29T19:58:22.663Z,96405.94
2023-08-29T20:00:51.116Z,96407.78
2023-08-29T20:03:18.531Z,96414.72
2023-08-29T20:05:45.595Z,96409.56
2023-08-29T20:08:21.060Z,96414.84
2023-08-29T20:10:48.015Z,96413.88
2023-08-29T20:13:14.619Z,96414.72
2023-08-29T20:15:45.487Z,96424.31
2023-08-29T20:18:12.995Z,96424.31
2023-08-29T20:20:40.800Z,96421.69
2023-08-29T20:23:09.738Z,96430.47
2023-08-29T20:25:36.330Z,96439.22
2023-08-29T20:28:03.180Z,96426.97
2023-08-29T20:30:29.783Z,96439.22
2023-08-29T20:32:56.384Z,96432.25
2023-08-29T20:35:22.989Z,96436.56
2023-08-29T20:37:49.577Z,96436.72
2023-08-29T20:40:16.180Z,96445.47
2023-08-29T20:42:42.950Z,96438.41
2023-08-29T20:45:10.179Z,96435.88
2023-08-29T20:47:37.336Z,96437.69
2023-08-29T20:50:04.610Z,96445.63
2023-08-29T20:52:31.194Z,96435.19
2023-08-29T20:54:57.735Z,96439.78
2023-08-29T20:57:51.954Z,96442.28
2023-08-29T21:00:18.731Z,96449.25
2023-08-29T21:02:45.592Z,96448.28
2023-08-29T21:05:12.218Z,96447.44
2023-08-29T21:07:38.755Z,96448.28
2023-08-29T21:10:05.975Z,96445.47
2023-08-29T21:12:57.034Z,96452.44
2023-08-29T21:15:24.115Z,96457.75
2023-08-29T21:17:50.673Z,96457.88
2023-08-29T21:20:17.427Z,96454.38
2023-08-29T21:22:43.976Z,96457.19
2023-08-29T21:25:10.524Z,96460.94
2023-08-29T21:27:37.069Z,96457.47
2023-08-29T21:30:05.419Z,96453.00
2023-08-29T21:32:32.000Z,96446.88
2023-08-29T21:34:58.598Z,96447.84
2023-08-29T21:37:25.154Z,96454.81
2023-08-29T21:39:51.752Z,96449.69
2023-08-29T21:42:18.252Z,96442.56
2023-08-29T21:44:44.787Z,96444.25
2023-08-29T21:47:11.321Z,96440.75
2023-08-29T21:49:37.860Z,96447.03
2023-08-29T21:52:04.670Z,96446.03
2023-08-29T21:54:32.584Z,96446.88
2023-08-29T21:56:59.103Z,96446.03
2023-08-29T21:59:25.706Z,96450.34
2023-08-29T22:01:53.544Z,96450.34
2023-08-29T22:15:43.938Z,96441.19
2023-08-29T22:18:10.748Z,96444.53
2023-08-29T22:20:43.694Z,96445.50
2023-08-29T22:23:22.021Z,96449.13
2023-08-29T22:25:48.530Z,96444.66
2023-08-29T22:28:15.085Z,96445.50
2023-08-29T22:30:41.602Z,96443.81
2023-08-29T22:33:09.297Z,96447.28
2023-08-29T22:35:35.971Z,96444.78
2023-08-29T22:38:02.596Z,96439.66
2023-08-29T22:40:29.153Z,96437.16
2023-08-29T22:42:55.757Z,96437.16
2023-08-29T22:45:22.404Z,96434.50
2023-08-29T22:47:51.667Z,96433.53
2023-08-29T22:50:18.512Z,96433.53
2023-08-29T22:52:45.027Z,96446.75
2023-08-29T22:55:11.870Z,96438.81
2023-08-29T22:57:38.395Z,96435.31
2023-08-29T23:00:08.799Z,96436.19
2023-08-29T23:02:35.460Z,96431.00
2023-08-29T23:05:02.061Z,96436.28
2023-08-29T23:07:28.589Z,96430.88
2023-08-29T23:09:55.170Z,96434.22
2023-08-29T23:12:21.686Z,96439.50
2023-08-29T23:14:48.237Z,96443.97
2023-08-29T23:17:14.769Z,96432.53
2023-08-29T23:19:45.141Z,96437.97
2023-08-29T23:22:12.266Z,96435.31
2023-08-29T23:24:38.870Z,96437.81
2023-08-29T23:27:07.120Z,96436.84
2023-08-29T23:29:34.081Z,96427.25
2023-08-29T23:32:00.636Z,96437.16
2023-08-29T23:34:27.490Z,96433.78
2023-08-29T23:36:54.012Z,96429.47
2023-08-29T23:39:20.600Z,96427.81
2023-08-29T23:41:48.920Z,96426.16
2023-08-29T23:44:15.506Z,96431.59
2023-08-29T23:46:42.084Z,96424.63
2023-08-29T23:49:09.022Z,96425.72
2023-08-29T23:51:35.537Z,96425.88
2023-08-29T23:54:02.069Z,96425.88
2023-08-29T23:56:28.652Z,96427.66
2023-08-29T23:58:55.189Z,96420.59
